Terminal Aerodrome Forecast
Issued by NWS Portland, OR

Home | Current Version | Previous Version | Text Only | Print | Product List | Glossary On
Versions: 1 2 3 4 5 6 7 8 9 10 11 12 13 14 15 16 17 18 19 20 21 22 23 24 25 26 27 28 29 30 31 32 33
000
FTUS46 KPQR 250532
TAFHIO
TAF
KHIO 250532Z 2506/2606 00000KT 4SM BR SCT050
     FM250900 00000KT 1/4SM FZFG VV002
     FM251800 00000KT 3/4SM BR OVC003
     FM252000 30003KT 4SM BR BKN003
     FM252200 VRB03KT P6SM FEW100 BKN250=

USA.gov is the U.S. government's official web portal to all federal, state and local government web resources and services.